Latest Weather Observations for Griffith

IDN60801

Issued at 8:05 pm EST Monday 28 July 2014 (issued every 30 minutes, with the page automatically refreshed every 10 minutes)

About weather observations | Map of weather stations | Latest weather observations for NSW | Other Formats
Station Details ID: 075041 Name: GRIFFITH AIRPORT AWS Lat: -34.25 Lon: 146.07 Height: 134.0 m
Data from the previous 72 hours. | See also: Recent months at Griffith
Date/Time
EST
Temp
°C
App
Temp
°C
Dew
Point
Rel
Hum
%
Delta-T
°C
Wind Press
QNH
hPa
Press
MSL
hPa
Rain
since 9 am
mm
Dir
 
Spd
km/h
Gust
km/h
Spd
kts
Gust
kts
28/08:00pm 11.7 9.3 4.2 60 3.4 W 6 7 3 4 1018.3 - 0.0
28/07:30pm 12.1 9.6 3.9 57 3.7 WNW 6 7 3 4 1018.1 - 0.0
28/07:00pm 12.6 9.0 3.0 52 4.3 N 11 13 6 7 1018.1 - 0.0
28/06:30pm 13.2 8.9 3.0 50 4.6 N 15 17 8 9 1017.8 - 0.0
28/06:00pm 13.6 9.6 3.1 49 4.7 N 13 15 7 8 1017.9 1018.1 0.0
28/05:30pm 14.3 10.1 3.7 49 4.9 N 15 17 8 9 1017.7 - 0.0
28/05:00pm 17.1 12.8 3.1 39 6.5 N 15 19 8 10 1017.7 - 0.0
28/04:30pm 18.2 13.3 2.1 34 7.4 NNW 17 22 9 12 1017.8 - 0.0
28/04:00pm 18.6 13.5 2.9 35 7.3 NNW 19 24 10 13 1017.7 - 0.0
28/03:30pm 19.0 12.8 2.0 32 7.8 NW 24 30 13 16 1017.9 - 0.0
28/03:00pm 19.2 13.0 2.1 32 7.9 NNW 24 32 13 17 1018.1 1018.3 0.0
28/02:30pm 19.1 13.3 2.5 33 7.7 NW 22 30 12 16 1018.2 - 0.0
28/02:00pm 18.9 13.2 3.1 35 7.4 NW 22 32 12 17 1018.6 - 0.0
28/01:30pm 18.4 12.3 2.7 35 7.3 NW 24 33 13 18 1018.7 - 0.0
28/01:00pm 18.1 11.6 2.4 35 7.2 NW 26 35 14 19 1019.5 - 0.0
28/12:30pm 17.3 11.4 3.9 41 6.3 NW 24 30 13 16 1020.0 - 0.0
28/12:00pm 16.6 10.7 4.0 43 5.9 NW 24 30 13 16 1020.4 1020.7 0.0
28/11:30am 15.9 11.5 4.6 47 5.3 NNW 17 28 9 15 1021.2 - 0.0
28/11:00am 16.1 11.3 5.4 49 5.1 NW 20 26 11 14 1021.4 - 0.0
28/10:30am 15.2 10.4 5.4 52 4.7 NNW 20 30 11 16 1021.7 - 0.0
28/10:00am 13.0 8.4 6.4 64 3.2 NNW 20 26 11 14 1022.1 - 0.0
28/09:30am 12.2 7.7 6.0 66 2.9 NNW 19 24 10 13 1022.0 - 0.0
28/09:00am 9.8 7.3 6.5 80 1.5 NW 9 11 5 6 1022.0 1022.3 0.0
28/08:30am 7.2 5.1 6.0 92 0.5 W 6 7 3 4 1021.6 - 0.0
28/08:00am 5.5 3.2 4.6 94 0.4 W 6 7 3 4 1021.8 - 0.0
28/07:30am 5.4 3.0 4.4 93 0.4 W 6 7 3 4 1021.7 - 0.0
28/07:00am 5.3 2.7 4.4 94 0.4 W 7 9 4 5 1021.8 - 0.0
28/06:30am 5.3 2.7 4.3 93 0.4 WSW 7 9 4 5 1021.6 - 0.0
28/06:00am 5.0 2.5 4.6 97 0.2 SW 7 9 4 5 1021.4 1021.7 0.0
28/05:30am 4.7 2.0 3.8 94 0.4 WSW 7 7 4 4 1021.2 - 0.0
28/05:00am 5.2 4.0 4.5 95 0.3 CALM 0 0 0 0 1021.5 - 0.0
28/04:30am 5.2 2.3 4.9 98 0.1 SW 9 9 5 5 1021.8 - 0.0
28/04:00am 5.1 3.9 4.5 96 0.3 CALM 0 0 0 0 1021.8 - 0.0
28/03:30am 5.2 3.9 4.2 93 0.4 CALM 0 6 0 3 1021.6 - 0.0
28/03:00am 5.8 3.9 4.9 94 0.4 SSW 4 7 2 4 1022.0 1022.3 0.0
28/02:30am 4.8 3.2 4.4 97 0.2 SW 2 7 1 4 1022.1 - 0.0
28/02:00am 5.0 3.7 4.3 95 0.3 CALM 0 6 0 3 1022.3 - 0.0
28/01:30am 5.1 3.8 4.1 93 0.4 CALM 0 0 0 0 1022.4 - 0.0
28/01:00am 5.5 4.2 4.3 92 0.5 CALM 0 0 0 0 1022.8 - 0.0
28/12:30am 5.7 4.0 4.2 90 0.6 N 2 9 1 5 1023.1 - 0.0
28/12:00am 5.4 3.2 3.6 88 0.8 N 4 6 2 3 1023.3 1023.6 0.0
 
Date/Time
EST
Temp
°C
App
Temp
°C
Dew
Point
Rel
Hum
%
Delta-T
°C
Wind Press
QNH
hPa
Press
MSL
hPa
Rain
since 9 am
mm
Dir
 
Spd
km/h
Gust
km/h
Spd
kts
Gust
kts
27/11:30pm 6.9 4.4 4.9 87 0.9 WSW 7 7 4 4 1023.8 - 0.0
27/11:00pm 7.2 6.1 4.9 85 1.0 CALM 0 0 0 0 1023.4 - 0.0
27/10:30pm 8.0 6.9 4.9 81 1.4 CALM 0 0 0 0 1023.4 - 0.0
27/10:00pm 7.1 5.1 4.4 83 1.2 NNE 4 6 2 3 1024.2 - 0.0
27/09:30pm 7.5 4.3 5.3 86 1.0 E 11 13 6 7 1024.4 - 0.0
27/09:00pm 7.4 4.3 5.4 87 0.9 ENE 11 13 6 7 1024.2 1024.4 0.0
27/08:30pm 8.0 5.3 5.8 86 1.0 E 9 9 5 5 1024.6 - 0.0
27/08:00pm 7.6 5.2 5.1 84 1.1 E 7 9 4 5 1024.5 - 0.0
27/07:30pm 9.6 6.9 5.6 76 1.8 NE 9 11 5 6 1024.3 - 0.0
27/07:00pm 8.4 5.5 4.4 76 1.8 NNE 9 11 5 6 1024.1 - 0.0
27/06:30pm 9.8 6.9 4.8 71 2.3 NNE 9 11 5 6 1023.8 - 0.0
27/06:00pm 10.3 8.0 4.7 68 2.5 N 6 9 3 5 1023.8 1024.1 0.0
27/05:30pm 12.2 9.1 5.4 63 3.2 N 11 13 6 7 1023.5 - 0.0
27/05:00pm 13.6 10.8 5.3 57 3.9 N 9 13 5 7 1023.8 - 0.0
27/04:30pm 15.6 13.1 4.9 49 5.1 NW 7 11 4 6 1023.8 - 0.0
27/04:00pm 16.0 12.4 5.0 48 5.2 NW 13 17 7 9 1024.3 - 0.0
27/03:30pm 15.9 11.5 4.9 48 5.2 WNW 17 22 9 12 1024.6 - 0.0
27/03:00pm 14.8 10.9 5.3 53 4.5 W 15 19 8 10 1024.8 1025.0 0.0
27/02:30pm 14.8 11.1 6.4 57 4.1 WSW 15 22 8 12 1025.0 - 0.0
27/02:00pm 15.6 12.3 6.3 54 4.5 W 13 17 7 9 1025.0 - 0.0
27/01:30pm 15.5 13.4 6.5 55 4.4 NW 7 13 4 7 1025.1 - 0.0
27/01:00pm 15.4 11.8 6.7 56 4.3 NW 15 20 8 11 1025.4 - 0.0
27/12:30pm 15.5 13.5 8.7 64 3.5 NW 9 15 5 8 1026.0 - 0.0
27/12:00pm 14.3 12.5 8.0 66 3.1 NW 7 13 4 7 1026.5 1026.8 0.0
27/11:30am 14.1 13.1 8.9 71 2.7 NW 4 7 2 4 1027.2 - 0.0
27/11:00am 13.1 12.9 10.6 85 1.3 N 2 7 1 4 1027.5 - 0.0
27/10:30am 10.7 10.5 10.5 99 0.1 N 2 7 1 4 1027.8 - 0.0
27/10:09am 8.8 8.2 8.8 100 0.0 WNW 2 7 1 4 1028.0 - 0.0
27/10:04am 8.4 7.7 8.4 100 0.0 W 2 7 1 4 1028.0 - 0.0
27/10:00am 8.4 8.0 8.4 100 0.0 CALM 0 4 0 2 1028.0 - 0.0
27/09:46am 7.4 6.4 7.4 100 0.0 W 2 6 1 3 1027.9 - 0.0
27/09:30am 6.3 5.1 6.3 100 0.0 WNW 2 6 1 3 1027.7 - 0.0
27/09:00am 4.6 3.4 4.6 100 0.0 CALM 0 0 0 0 1027.6 1027.9 0.0
27/08:30am 3.3 1.8 3.2 99 0.0 CALM 0 0 0 0 1027.7 - 0.0
27/08:00am 2.9 1.4 2.8 99 0.0 CALM 0 0 0 0 1027.6 - 0.0
27/07:30am 1.8 0.1 1.7 99 0.0 CALM 0 0 0 0 1027.4 - 0.0
27/07:00am 1.4 -0.4 1.3 99 0.0 CALM 0 0 0 0 1027.0 - 0.0
27/06:50am 1.6 -0.2 1.5 99 0.0 CALM 0 0 0 0 1026.9 - 0.0
27/06:44am 1.8 0.1 1.7 99 0.0 CALM 0 0 0 0 1026.8 - 0.0
27/06:30am 2.1 0.4 2.0 99 0.0 CALM 0 0 0 0 1026.6 - 0.0
27/06:00am 2.0 0.3 1.9 99 0.0 CALM 0 0 0 0 1026.4 1026.7 0.0
27/05:30am 2.2 0.5 2.1 99 0.0 CALM 0 0 0 0 1026.1 - 0.0
27/05:00am 2.5 0.9 2.4 99 0.0 CALM 0 0 0 0 1026.4 - 0.0
27/04:30am 2.3 0.7 2.2 99 0.0 CALM 0 0 0 0 1026.3 - 0.0
27/04:00am 2.6 1.0 2.5 99 0.0 CALM 0 0 0 0 1026.1 - 0.0
27/03:30am 2.5 0.9 2.4 99 0.0 CALM 0 0 0 0 1026.3 - 0.0
27/03:00am 2.9 1.4 2.8 99 0.0 CALM 0 0 0 0 1026.5 1026.8 0.0
27/02:30am 3.0 1.5 2.9 99 0.0 CALM 0 0 0 0 1026.5 - 0.0
27/02:00am 2.9 1.4 2.8 99 0.0 CALM 0 0 0 0 1026.8 - 0.0
27/01:30am 3.7 2.3 3.6 99 0.0 CALM 0 0 0 0 1026.8 - 0.0
27/01:20am 3.4 2.0 3.3 99 0.0 CALM 0 0 0 0 1026.8 - 0.0
27/01:18am 3.4 2.0 3.3 99 0.0 CALM 0 0 0 0 1026.8 - 0.0
27/01:00am 3.1 1.6 3.0 99 0.0 CALM 0 - 0 - 1026.8 - 0.0
27/12:43am 4.3 3.0 4.2 99 0.0 CALM 0 0 0 0 1026.9 - 0.0
27/12:30am 4.7 3.5 4.6 99 0.0 CALM 0 0 0 0 1026.9 - 0.0
27/12:00am 4.0 2.7 3.9 99 0.0 CALM 0 0 0 0 1027.1 1027.4 0.0
 
Date/Time
EST
Temp
°C
App
Temp
°C
Dew
Point
Rel
Hum
%
Delta-T
°C
Wind Press
QNH
hPa
Press
MSL
hPa
Rain
since 9 am
mm
Dir
 
Spd
km/h
Gust
km/h
Spd
kts
Gust
kts
26/11:56pm 4.1 2.8 4.0 99 0.0 CALM 0 0 0 0 1027.1 - 0.0
26/11:54pm 4.2 2.9 4.1 99 0.0 CALM 0 0 0 0 1027.0 - 0.0
26/11:30pm 5.0 3.9 4.9 99 0.0 CALM 0 0 0 0 1026.9 - 0.0
26/11:14pm 5.4 4.3 5.3 99 0.0 CALM 0 0 0 0 1026.9 - 0.0
26/11:10pm 5.5 4.5 5.4 99 0.0 CALM 0 0 0 0 1026.9 - 0.0
26/11:00pm 5.1 4.0 5.0 99 0.0 CALM 0 6 0 3 1026.9 - 0.0
26/10:30pm 6.0 5.1 5.9 99 0.0 CALM 0 0 0 0 1026.8 - 0.0
26/10:23pm 6.5 5.7 6.4 99 0.0 CALM 0 0 0 0 1026.8 - 0.0
26/10:08pm 6.9 6.2 6.8 99 0.0 CALM 0 0 0 0 1026.8 - 0.0
26/10:00pm 6.8 6.0 6.7 99 0.0 CALM 0 0 0 0 1026.8 - 0.0
26/09:30pm 6.6 5.8 6.5 99 0.0 CALM 0 0 0 0 1026.8 - 0.0
26/09:00pm 7.3 6.7 7.2 99 0.0 CALM 0 0 0 0 1026.6 1026.9 0.0
26/08:30pm 6.7 5.7 5.7 93 0.4 CALM 0 6 0 3 1026.4 - 0.0
26/08:00pm 7.9 7.3 7.5 97 0.2 CALM 0 0 0 0 1026.2 - 0.0
26/07:30pm 8.2 7.5 7.1 93 0.5 CALM 0 0 0 0 1026.0 - 0.0
26/07:00pm 9.5 9.1 8.1 91 0.7 CALM 0 0 0 0 1025.8 - 0.0
26/06:30pm 10.5 10.0 7.7 83 1.4 CALM 0 0 0 0 1025.7 - 0.0
26/06:00pm 12.4 10.7 8.5 77 1.9 W 7 9 4 5 1025.4 1025.6 0.0
26/05:30pm 13.5 10.7 8.6 72 2.5 WSW 13 15 7 8 1025.1 - 0.0
26/05:00pm 14.2 11.0 8.6 69 2.8 WSW 15 19 8 10 1025.1 - 0.0
26/04:30pm 15.0 11.4 8.3 64 3.4 WSW 17 22 9 12 1024.8 - 0.0
26/04:00pm 15.2 11.7 8.7 65 3.3 WSW 17 20 9 11 1024.6 - 0.0
26/03:30pm 15.3 11.4 8.8 65 3.3 WSW 19 22 10 12 1024.5 - 0.0
26/03:00pm 15.5 11.6 8.7 64 3.5 WSW 19 24 10 13 1024.2 1024.4 0.0
26/02:30pm 15.7 11.6 8.0 60 3.9 WSW 19 22 10 12 1024.1 - 0.0
26/02:00pm 15.2 11.0 8.2 63 3.5 WSW 20 26 11 14 1024.1 - 0.0
26/01:30pm 15.1 11.3 9.0 67 3.1 WSW 19 24 10 13 1024.3 - 0.0
26/01:00pm 14.8 11.4 9.0 68 3.0 WSW 17 24 9 13 1024.6 - 0.0
26/12:30pm 14.9 11.7 9.9 72 2.6 W 17 28 9 15 1025.1 - 0.0
26/12:00pm 14.9 12.0 9.7 71 2.7 W 15 22 8 12 1025.4 1025.6 0.0
26/11:30am 14.4 12.3 9.8 74 2.4 W 11 17 6 9 1025.8 - 0.0
26/11:00am 13.4 11.4 8.5 72 2.5 NW 9 17 5 9 1026.2 - 0.0
26/10:30am 12.6 10.1 8.3 75 2.1 NW 11 15 6 8 1026.3 - 0.0
26/10:00am 11.4 9.1 7.5 77 1.9 NW 9 13 5 7 1026.4 - 0.0
26/09:30am 9.5 7.3 6.2 80 1.5 WNW 7 9 4 5 1026.3 - 0.0
26/09:00am 8.3 7.3 5.8 84 1.1 CALM 0 6 0 3 1025.9 1026.2 0.0
26/08:30am 6.9 5.8 4.9 87 0.9 CALM 0 0 0 0 1025.6 - 0.0
26/08:00am 5.8 4.8 5.4 97 0.2 CALM 0 6 0 3 1025.2 - 0.0
26/07:30am 4.0 1.5 3.9 99 0.0 WSW 6 7 3 4 1024.9 - 0.0
26/07:00am 3.8 1.3 3.7 99 0.0 SW 6 9 3 5 1024.4 - 0.0
26/06:30am 2.2 0.5 2.1 99 0.0 CALM 0 0 0 0 1024.1 - 0.0
26/06:00am 3.2 1.7 3.1 99 0.0 CALM 0 0 0 0 1023.7 1024.0 0.0
26/05:30am 2.9 1.3 2.6 98 0.1 CALM 0 0 0 0 1023.3 - 0.0
26/05:00am 3.1 1.5 2.7 97 0.2 CALM 0 0 0 0 1022.9 - 0.0
26/04:30am 3.7 1.8 2.8 94 0.4 E 2 7 1 4 1022.5 - 0.0
26/04:00am 4.6 1.4 3.3 91 0.5 E 9 11 5 6 1022.4 - 0.0
26/03:30am 4.7 1.9 3.0 89 0.7 NE 7 9 4 5 1022.4 - 0.0
26/03:00am 5.9 3.5 4.2 89 0.7 N 6 9 3 5 1022.5 1022.8 0.0
26/02:30am 6.0 3.0 4.0 87 0.9 SW 9 11 5 6 1022.6 - 0.0
26/02:00am 5.0 3.6 3.7 91 0.5 CALM 0 7 0 4 1022.8 - 0.0
26/01:30am 5.2 2.4 3.4 88 0.8 SW 7 9 4 5 1022.8 - 0.0
26/01:00am 5.6 3.4 3.6 87 0.8 WSW 4 7 2 4 1022.6 - 0.0
26/12:30am 5.4 4.1 4.1 91 0.6 CALM 0 0 0 0 1022.6 - 0.0
26/12:00am 5.3 3.9 3.8 90 0.6 CALM 0 0 0 0 1022.6 1022.9 0.0
 
Date/Time
EST
Temp
°C
App
Temp
°C
Dew
Point
Rel
Hum
%
Delta-T
°C
Wind Press
QNH
hPa
Press
MSL
hPa
Rain
since 9 am
mm
Dir
 
Spd
km/h
Gust
km/h
Spd
kts
Gust
kts
25/11:30pm 6.2 5.0 4.7 90 0.7 CALM 0 0 0 0 1022.7 - 0.0
25/11:00pm 5.6 3.9 4.1 90 0.6 SW 2 6 1 3 1022.6 - 0.0
25/10:30pm 5.7 4.4 3.9 88 0.8 CALM 0 0 0 0 1022.5 - 0.0
25/10:00pm 6.5 5.3 4.5 87 0.9 CALM 0 0 0 0 1022.5 - 0.0
25/09:30pm 6.5 5.2 4.2 85 1.0 CALM 0 0 0 0 1022.3 - 0.0
25/09:00pm 6.8 5.5 4.3 84 1.1 CALM 0 0 0 0 1022.0 1022.3 0.0
25/08:30pm 7.8 6.7 4.9 82 1.3 CALM 0 0 0 0 1021.9 - 0.0

Other Formats:

Comma delimited format used in spreadsheet applications
http://www.bom.gov.au/fwo/IDN60801/IDN60801.95704.axf

JavaScript Object Notation format (JSON) in row-major order
http://www.bom.gov.au/fwo/IDN60801/IDN60801.95704.json